Obelix — 7JAX — position and weather

sailwx.info

Track history (hours):
 
Tides and Currents Weather Stations Pressure Air Temp Water Temp Dewpoint Dewpoint Depression Visibility Wind Speed Wind Dir Waves Ship Positions

Obelix

Last reported at 2017-Sep-20 18:00 UTC. Time now 2017-Sep-20 18:17 UTC.
Position N 35°28' E 139°44'.

Length 74 m; draft 3.9 m.

Type: Tanker. MMSI: 432528000.

Date/timePositionNaut miles runAvg speedWind from/ knotsBaromVisibWave heightAir tempDewpointWater temp
2017-Sep-20 18:00N 35°28' E 139°44'0 0.0
2017-Sep-20 17:30N 35°28' E 139°44'0 0.1
2017-Sep-20 17:00N 35°28' E 139°44'0 0.0
2017-Sep-20 16:30N 35°28' E 139°44'0 0.0
2017-Sep-20 16:00N 35°28' E 139°44'0 0.0
2017-Sep-20 15:30N 35°28' E 139°44'0 0.1
2017-Sep-20 15:00N 35°28' E 139°44'0 0.0
2017-Sep-20 14:00N 35°28' E 139°44'0 0.0
2017-Sep-20 13:30N 35°28' E 139°44'0 0.0
2017-Sep-20 13:00N 35°28' E 139°44'1 2.2
2017-Sep-20 12:30N 35°27' E 139°45'5 9.6
2017-Sep-20 12:00N 35°22' E 139°45'510.4
2017-Sep-20 11:30N 35°17' E 139°46'611.2
2017-Sep-20 11:00N 35°11' E 139°47'612.8
2017-Sep-20 10:30N 35°05' E 139°45'612.9
2017-Sep-20 10:00N 35°01' E 139°39'713.3
2017-Sep-20 09:30N 34°57' E 139°33'23210.7
2017-Sep-19 11:51N 34°01' E 134°60'512.1
2017-Sep-19 11:27N 34°06' E 134°59'511.8
2017-Sep-19 10:59N 34°12' E 134°59'610.9
2017-Sep-19 10:28N 34°17' E 134°59'610.6
2017-Sep-19 09:56N 34°23' E 134°60'511.3
2017-Sep-19 09:30N 34°28' E 135°01'510.9
2017-Sep-19 09:01N 34°33' E 135°03'4 8.3
2017-Sep-19 08:31N 34°37' E 135°01'510.6
2017-Sep-19 08:00N 34°37' E 134°54'611.5
2017-Sep-19 07:28N 34°40' E 134°49'8 0.3
2017-Sep-18 05:53N 34°38' E 134°58'4 9.6
2017-Sep-18 05:30N 34°37' E 135°02'5 9.3
2017-Sep-18 05:00N 34°36' E 135°08'611.5
2017-Sep-18 04:30N 34°35' E 135°15'611.3
2017-Sep-18 04:00N 34°34' E 135°21'3 6.9
2017-Sep-18 03:30N 34°33' E 135°25'0 0.0
2017-Sep-18 03:00N 34°33' E 135°25'0 0.0
2017-Sep-18 02:30N 34°33' E 135°25'0 0.0
2017-Sep-18 02:00N 34°33' E 135°25'0 0.0
2017-Sep-18 01:30N 34°33' E 135°25'0 0.0
2017-Sep-18 00:54N 34°33' E 135°25'0 0.0
2017-Sep-18 00:30N 34°33' E 135°25'0 0.0
2017-Sep-17 23:54N 34°33' E 135°25'0 0.0
2017-Sep-17 23:30N 34°33' E 135°25'0 0.6
2017-Sep-17 23:00N 34°33' E 135°25'5 9.0
2017-Sep-17 22:29N 34°32' E 135°20'511.6
2017-Sep-17 22:01N 34°30' E 135°13'1 1.8
2017-Sep-17 21:27N 34°30' E 135°12'0 0.0
2017-Sep-17 21:00N 34°30' E 135°12'0 0.0
2017-Sep-17 20:30N 34°30' E 135°12'0 0.0
2017-Sep-17 19:56N 34°30' E 135°12'0 0.0
2017-Sep-17 19:27N 34°30' E 135°12'0 0.0
2017-Sep-17 18:51N 34°30' E 135°12'0 0.0
2017-Sep-17 18:28N 34°30' E 135°12'0 0.0
2017-Sep-17 17:57N 34°30' E 135°12'0 0.0
2017-Sep-17 17:27N 34°30' E 135°12'0 0.0
2017-Sep-17 13:45N 34°30' E 135°12'0 0.0
2017-Sep-17 13:27N 34°30' E 135°12'0 0.1
2017-Sep-17 12:51N 34°30' E 135°12'0 0.0
2017-Sep-17 12:27N 34°30' E 135°12'0 0.1
2017-Sep-17 11:57N 34°30' E 135°12'0 0.2
2017-Sep-17 11:27N 34°30' E 135°12'0 0.0
2017-Sep-17 10:57N 34°30' E 135°12'0 0.0
2017-Sep-17 10:21N 34°30' E 135°12'0 0.0
2017-Sep-17 09:57N 34°30' E 135°12'0 0.0
2017-Sep-17 09:15N 34°30' E 135°12'0 0.1
2017-Sep-17 08:57N 34°30' E 135°12'0 0.0
2017-Sep-17 08:25N 34°30' E 135°12'0 0.0
2017-Sep-17 07:57N 34°30' E 135°12'0 0.0
2017-Sep-17 07:30N 34°30' E 135°12'0 0.0
2017-Sep-17 06:57N 34°30' E 135°12'0 0.0
2017-Sep-17 06:27N 34°30' E 135°12'0 0.0
2017-Sep-17 06:00N 34°30' E 135°12'0 0.0
2017-Sep-17 05:27N 34°30' E 135°12'0 0.0
2017-Sep-17 04:57N 34°30' E 135°12'0 0.0
2017-Sep-17 04:27N 34°30' E 135°12'0 0.0
2017-Sep-17 03:57N 34°30' E 135°12'0 0.0
2017-Sep-17 03:15N 34°30' E 135°12'0 0.0
2017-Sep-17 02:51N 34°30' E 135°12'0 0.0
2017-Sep-17 02:21N 34°30' E 135°12'0 0.0
2017-Sep-17 01:57N 34°30' E 135°12'0 0.0
2017-Sep-17 01:12N 34°30' E 135°12'0 0.0
2017-Sep-17 00:59N 34°30' E 135°12'0 0.0
2017-Sep-17 00:27N 34°30' E 135°12'0 0.0
2017-Sep-16 23:57N 34°30' E 135°12'0 0.0
2017-Sep-16 23:27N 34°30' E 135°12'0 0.0
2017-Sep-16 22:54N 34°30' E 135°12'0 0.0
2017-Sep-16 22:30N 34°30' E 135°12'0 0.0
2017-Sep-16 21:57N 34°30' E 135°12'0 0.0
2017-Sep-16 21:27N 34°30' E 135°12'0 0.0
2017-Sep-16 20:57N 34°30' E 135°12'0 0.0
2017-Sep-16 20:30N 34°30' E 135°12'0 0.0
2017-Sep-16 19:57N 34°30' E 135°12'0 0.0
2017-Sep-16 19:21N 34°30' E 135°12'0 0.0
2017-Sep-16 18:57N 34°30' E 135°12'0 0.0
2017-Sep-16 18:27N 34°30' E 135°12'0 0.0
2017-Sep-16 17:57N 34°30' E 135°12'0 0.0
2017-Sep-16 17:28N 34°30' E 135°12'0 0.0
2017-Sep-16 16:57N 34°30' E 135°12'0 0.0
2017-Sep-16 16:27N 34°30' E 135°12'0 0.0
2017-Sep-16 15:57N 34°30' E 135°12'0 0.0
2017-Sep-16 15:21N 34°30' E 135°12'0 0.0
2017-Sep-16 14:45N 34°30' E 135°12'0 0.0
2017-Sep-16 14:27N 34°30' E 135°12'0 0.0
2017-Sep-16 13:57N 34°30' E 135°12'0 0.0
2017-Sep-16 13:30N 34°30' E 135°12'0 0.5
2017-Sep-16 12:59N 34°30' E 135°12'510.1
2017-Sep-16 12:30N 34°33' E 135°07'611.9
2017-Sep-16 12:00N 34°37' E 135°01'510.9
2017-Sep-16 11:30N 34°35' E 134°55'  
2017-Sep-13 07:34N 34°40' E 134°46'8 0.3
2017-Sep-12 07:20N 34°37' E 134°55'511.6
2017-Sep-12 06:53N 34°37' E 135°01'411.2
2017-Sep-12 06:30N 34°36' E 135°06'611.1
2017-Sep-12 06:00N 34°35' E 135°13'611.6
2017-Sep-12 05:30N 34°34' E 135°20'5 8.9
2017-Sep-12 04:59N 34°33' E 135°25'0 0.1
2017-Sep-12 00:03N 34°33' E 135°25'0 0.6
2017-Sep-11 23:55N 34°33' E 135°25'2 4.4
2017-Sep-11 23:30N 34°33' E 135°23'4 8.0
2017-Sep-11 23:01N 34°31' E 135°19'1 1.2
2017-Sep-11 22:29N 34°32' E 135°18'3 6.7
2017-Sep-11 22:00N 34°34' E 135°15'611.3
2017-Sep-11 21:30N 34°39' E 135°11'1 2.0
2017-Sep-11 20:57N 34°40' E 135°11'0 0.0
2017-Sep-11 20:21N 34°40' E 135°11'0 0.0
2017-Sep-11 19:57N 34°40' E 135°11'0 0.0
2017-Sep-11 19:21N 34°40' E 135°11'0 0.0
2017-Sep-11 18:57N 34°40' E 135°11'0 0.0
2017-Sep-11 18:27N 34°40' E 135°11'0 0.0
2017-Sep-11 17:57N 34°40' E 135°11'0 0.0
2017-Sep-11 17:27N 34°40' E 135°11'0 0.0
2017-Sep-11 16:51N 34°40' E 135°11'0 0.0
2017-Sep-11 16:21N 34°40' E 135°11'0 0.0
2017-Sep-11 15:57N 34°40' E 135°11'0 0.0
2017-Sep-11 15:27N 34°40' E 135°11'0 0.0
2017-Sep-11 14:57N 34°40' E 135°11'0 0.0
2017-Sep-11 14:27N 34°40' E 135°11'0 0.0
2017-Sep-11 13:57N 34°40' E 135°11'0 0.0
2017-Sep-11 13:21N 34°40' E 135°11'0 0.0
2017-Sep-11 12:57N 34°40' E 135°11'0 0.0
2017-Sep-11 12:27N 34°40' E 135°11'0 0.0
2017-Sep-11 11:57N 34°40' E 135°11'0 0.0
2017-Sep-11 11:21N 34°40' E 135°11'0 0.0
2017-Sep-11 10:57N 34°40' E 135°11'0 0.0
2017-Sep-11 10:27N 34°40' E 135°11'0 0.0
2017-Sep-11 09:57N 34°40' E 135°11'0 0.0
2017-Sep-11 09:21N 34°40' E 135°11'0 0.0
2017-Sep-11 08:57N 34°40' E 135°11'0 0.0
2017-Sep-11 08:27N 34°40' E 135°11'0 0.0
2017-Sep-11 07:57N 34°40' E 135°11'0 0.0
2017-Sep-11 07:21N 34°40' E 135°11'0 0.0
2017-Sep-11 06:57N 34°40' E 135°11'0 0.0
2017-Sep-11 06:27N 34°40' E 135°11'0 0.0
2017-Sep-11 05:57N 34°40' E 135°11'0 0.0
2017-Sep-11 05:09N 34°40' E 135°11'0 0.0
2017-Sep-11 04:39N 34°40' E 135°11'0 0.0
2017-Sep-11 04:27N 34°40' E 135°11'0 0.0
2017-Sep-11 03:57N 34°40' E 135°11'0 0.0
2017-Sep-11 03:27N 34°40' E 135°11'0 0.0
2017-Sep-11 02:57N 34°40' E 135°11'0 0.0
2017-Sep-11 02:27N 34°40' E 135°11'0 0.0
2017-Sep-11 01:57N 34°40' E 135°11'0 0.0
2017-Sep-11 01:21N 34°40' E 135°11'0 0.0
2017-Sep-11 00:57N 34°40' E 135°11'0 0.0
2017-Sep-11 00:21N 34°40' E 135°11'0 0.0
2017-Sep-10 23:57N 34°40' E 135°11'0 0.0
2017-Sep-10 23:21N 34°40' E 135°11'0 0.0
2017-Sep-10 22:57N 34°40' E 135°11'0 0.0
2017-Sep-10 22:27N 34°40' E 135°11'0 0.0
2017-Sep-10 21:57N 34°40' E 135°11'0 0.0
2017-Sep-10 21:27N 34°40' E 135°11'0 0.0
2017-Sep-10 20:57N 34°40' E 135°11'0 0.0
2017-Sep-10 20:27N 34°40' E 135°11'0 0.0
2017-Sep-10 19:51N 34°40' E 135°11'0 0.0
2017-Sep-10 19:27N 34°40' E 135°11'0 0.0
2017-Sep-10 18:57N 34°40' E 135°11'0 0.0
2017-Sep-10 18:27N 34°40' E 135°11'  
Track history (hours):
 
Tides and Currents Weather Stations Pressure Air Temp Water Temp Dewpoint Dewpoint Depression Visibility Wind Speed Wind Dir Waves Ship Positions

Obelix

Last reported at 2017-Sep-20 18:00 UTC. Time now 2017-Sep-20 18:17 UTC.
Position N 35°28' E 139°44'.

Length 74 m; draft 3.9 m.

Type: Tanker. MMSI: 432528000.

Date/timePositionNaut miles runAvg speedWind from/ knotsBaromVisibWave heightAir tempDewpointWater temp
2017-Sep-20 18:00N 35°28' E 139°44'0 0.0
2017-Sep-20 17:30N 35°28' E 139°44'0 0.1
2017-Sep-20 17:00N 35°28' E 139°44'0 0.0
2017-Sep-20 16:30N 35°28' E 139°44'0 0.0
2017-Sep-20 16:00N 35°28' E 139°44'0 0.0
2017-Sep-20 15:30N 35°28' E 139°44'0 0.1
2017-Sep-20 15:00N 35°28' E 139°44'0 0.0
2017-Sep-20 14:00N 35°28' E 139°44'0 0.0
2017-Sep-20 13:30N 35°28' E 139°44'0 0.0
2017-Sep-20 13:00N 35°28' E 139°44'1 2.2
2017-Sep-20 12:30N 35°27' E 139°45'5 9.6
2017-Sep-20 12:00N 35°22' E 139°45'510.4
2017-Sep-20 11:30N 35°17' E 139°46'611.2
2017-Sep-20 11:00N 35°11' E 139°47'612.8
2017-Sep-20 10:30N 35°05' E 139°45'612.9
2017-Sep-20 10:00N 35°01' E 139°39'713.3
2017-Sep-20 09:30N 34°57' E 139°33'23210.7
2017-Sep-19 11:51N 34°01' E 134°60'512.1
2017-Sep-19 11:27N 34°06' E 134°59'511.8
2017-Sep-19 10:59N 34°12' E 134°59'610.9
2017-Sep-19 10:28N 34°17' E 134°59'610.6
2017-Sep-19 09:56N 34°23' E 134°60'511.3
2017-Sep-19 09:30N 34°28' E 135°01'510.9
2017-Sep-19 09:01N 34°33' E 135°03'4 8.3
2017-Sep-19 08:31N 34°37' E 135°01'510.6
2017-Sep-19 08:00N 34°37' E 134°54'611.5
2017-Sep-19 07:28N 34°40' E 134°49'8 0.3
2017-Sep-18 05:53N 34°38' E 134°58'4 9.6
2017-Sep-18 05:30N 34°37' E 135°02'5 9.3
2017-Sep-18 05:00N 34°36' E 135°08'611.5
2017-Sep-18 04:30N 34°35' E 135°15'611.3
2017-Sep-18 04:00N 34°34' E 135°21'3 6.9
2017-Sep-18 03:30N 34°33' E 135°25'0 0.0
2017-Sep-18 03:00N 34°33' E 135°25'0 0.0
2017-Sep-18 02:30N 34°33' E 135°25'0 0.0
2017-Sep-18 02:00N 34°33' E 135°25'0 0.0
2017-Sep-18 01:30N 34°33' E 135°25'0 0.0
2017-Sep-18 00:54N 34°33' E 135°25'0 0.0
2017-Sep-18 00:30N 34°33' E 135°25'0 0.0
2017-Sep-17 23:54N 34°33' E 135°25'0 0.0
2017-Sep-17 23:30N 34°33' E 135°25'0 0.6
2017-Sep-17 23:00N 34°33' E 135°25'5 9.0
2017-Sep-17 22:29N 34°32' E 135°20'511.6
2017-Sep-17 22:01N 34°30' E 135°13'1 1.8
2017-Sep-17 21:27N 34°30' E 135°12'0 0.0
2017-Sep-17 21:00N 34°30' E 135°12'0 0.0
2017-Sep-17 20:30N 34°30' E 135°12'0 0.0
2017-Sep-17 19:56N 34°30' E 135°12'0 0.0
2017-Sep-17 19:27N 34°30' E 135°12'0 0.0
2017-Sep-17 18:51N 34°30' E 135°12'0 0.0
2017-Sep-17 18:28N 34°30' E 135°12'0 0.0
2017-Sep-17 17:57N 34°30' E 135°12'0 0.0
2017-Sep-17 17:27N 34°30' E 135°12'0 0.0
2017-Sep-17 13:45N 34°30' E 135°12'0 0.0
2017-Sep-17 13:27N 34°30' E 135°12'0 0.1
2017-Sep-17 12:51N 34°30' E 135°12'0 0.0
2017-Sep-17 12:27N 34°30' E 135°12'0 0.1
2017-Sep-17 11:57N 34°30' E 135°12'0 0.2
2017-Sep-17 11:27N 34°30' E 135°12'0 0.0
2017-Sep-17 10:57N 34°30' E 135°12'0 0.0
2017-Sep-17 10:21N 34°30' E 135°12'0 0.0
2017-Sep-17 09:57N 34°30' E 135°12'0 0.0
2017-Sep-17 09:15N 34°30' E 135°12'0 0.1
2017-Sep-17 08:57N 34°30' E 135°12'0 0.0
2017-Sep-17 08:25N 34°30' E 135°12'0 0.0
2017-Sep-17 07:57N 34°30' E 135°12'0 0.0
2017-Sep-17 07:30N 34°30' E 135°12'0 0.0
2017-Sep-17 06:57N 34°30' E 135°12'0 0.0
2017-Sep-17 06:27N 34°30' E 135°12'0 0.0
2017-Sep-17 06:00N 34°30' E 135°12'0 0.0
2017-Sep-17 05:27N 34°30' E 135°12'0 0.0
2017-Sep-17 04:57N 34°30' E 135°12'0 0.0
2017-Sep-17 04:27N 34°30' E 135°12'0 0.0
2017-Sep-17 03:57N 34°30' E 135°12'0 0.0
2017-Sep-17 03:15N 34°30' E 135°12'0 0.0
2017-Sep-17 02:51N 34°30' E 135°12'0 0.0
2017-Sep-17 02:21N 34°30' E 135°12'0 0.0
2017-Sep-17 01:57N 34°30' E 135°12'0 0.0
2017-Sep-17 01:12N 34°30' E 135°12'0 0.0
2017-Sep-17 00:59N 34°30' E 135°12'0 0.0
2017-Sep-17 00:27N 34°30' E 135°12'0 0.0
2017-Sep-16 23:57N 34°30' E 135°12'0 0.0
2017-Sep-16 23:27N 34°30' E 135°12'0 0.0
2017-Sep-16 22:54N 34°30' E 135°12'0 0.0
2017-Sep-16 22:30N 34°30' E 135°12'0 0.0
2017-Sep-16 21:57N 34°30' E 135°12'0 0.0
2017-Sep-16 21:27N 34°30' E 135°12'0 0.0
2017-Sep-16 20:57N 34°30' E 135°12'0 0.0
2017-Sep-16 20:30N 34°30' E 135°12'0 0.0
2017-Sep-16 19:57N 34°30' E 135°12'0 0.0
2017-Sep-16 19:21N 34°30' E 135°12'0 0.0
2017-Sep-16 18:57N 34°30' E 135°12'0 0.0
2017-Sep-16 18:27N 34°30' E 135°12'0 0.0
2017-Sep-16 17:57N 34°30' E 135°12'0 0.0
2017-Sep-16 17:28N 34°30' E 135°12'0 0.0
2017-Sep-16 16:57N 34°30' E 135°12'0 0.0
2017-Sep-16 16:27N 34°30' E 135°12'0 0.0
2017-Sep-16 15:57N 34°30' E 135°12'0 0.0
2017-Sep-16 15:21N 34°30' E 135°12'0 0.0
2017-Sep-16 14:45N 34°30' E 135°12'0 0.0
2017-Sep-16 14:27N 34°30' E 135°12'0 0.0
2017-Sep-16 13:57N 34°30' E 135°12'0 0.0
2017-Sep-16 13:30N 34°30' E 135°12'0 0.5
2017-Sep-16 12:59N 34°30' E 135°12'510.1
2017-Sep-16 12:30N 34°33' E 135°07'611.9
2017-Sep-16 12:00N 34°37' E 135°01'510.9
2017-Sep-16 11:30N 34°35' E 134°55'  
2017-Sep-13 07:34N 34°40' E 134°46'8 0.3
2017-Sep-12 07:20N 34°37' E 134°55'511.6
2017-Sep-12 06:53N 34°37' E 135°01'411.2
2017-Sep-12 06:30N 34°36' E 135°06'611.1
2017-Sep-12 06:00N 34°35' E 135°13'611.6
2017-Sep-12 05:30N 34°34' E 135°20'5 8.9
2017-Sep-12 04:59N 34°33' E 135°25'0 0.1
2017-Sep-12 00:03N 34°33' E 135°25'0 0.6
2017-Sep-11 23:55N 34°33' E 135°25'2 4.4
2017-Sep-11 23:30N 34°33' E 135°23'4 8.0
2017-Sep-11 23:01N 34°31' E 135°19'1 1.2
2017-Sep-11 22:29N 34°32' E 135°18'3 6.7
2017-Sep-11 22:00N 34°34' E 135°15'611.3
2017-Sep-11 21:30N 34°39' E 135°11'1 2.0
2017-Sep-11 20:57N 34°40' E 135°11'0 0.0
2017-Sep-11 20:21N 34°40' E 135°11'0 0.0
2017-Sep-11 19:57N 34°40' E 135°11'0 0.0
2017-Sep-11 19:21N 34°40' E 135°11'0 0.0
2017-Sep-11 18:57N 34°40' E 135°11'0 0.0
2017-Sep-11 18:27N 34°40' E 135°11'0 0.0
2017-Sep-11 17:57N 34°40' E 135°11'0 0.0
2017-Sep-11 17:27N 34°40' E 135°11'0 0.0
2017-Sep-11 16:51N 34°40' E 135°11'0 0.0
2017-Sep-11 16:21N 34°40' E 135°11'0 0.0
2017-Sep-11 15:57N 34°40' E 135°11'0 0.0
2017-Sep-11 15:27N 34°40' E 135°11'0 0.0
2017-Sep-11 14:57N 34°40' E 135°11'0 0.0
2017-Sep-11 14:27N 34°40' E 135°11'0 0.0
2017-Sep-11 13:57N 34°40' E 135°11'0 0.0
2017-Sep-11 13:21N 34°40' E 135°11'0 0.0
2017-Sep-11 12:57N 34°40' E 135°11'0 0.0
2017-Sep-11 12:27N 34°40' E 135°11'0 0.0
2017-Sep-11 11:57N 34°40' E 135°11'0 0.0
2017-Sep-11 11:21N 34°40' E 135°11'0 0.0
2017-Sep-11 10:57N 34°40' E 135°11'0 0.0
2017-Sep-11 10:27N 34°40' E 135°11'0 0.0
2017-Sep-11 09:57N 34°40' E 135°11'0 0.0
2017-Sep-11 09:21N 34°40' E 135°11'0 0.0
2017-Sep-11 08:57N 34°40' E 135°11'0 0.0
2017-Sep-11 08:27N 34°40' E 135°11'0 0.0
2017-Sep-11 07:57N 34°40' E 135°11'0 0.0
2017-Sep-11 07:21N 34°40' E 135°11'0 0.0
2017-Sep-11 06:57N 34°40' E 135°11'0 0.0
2017-Sep-11 06:27N 34°40' E 135°11'0 0.0
2017-Sep-11 05:57N 34°40' E 135°11'0 0.0
2017-Sep-11 05:09N 34°40' E 135°11'0 0.0
2017-Sep-11 04:39N 34°40' E 135°11'0 0.0
2017-Sep-11 04:27N 34°40' E 135°11'0 0.0
2017-Sep-11 03:57N 34°40' E 135°11'0 0.0
2017-Sep-11 03:27N 34°40' E 135°11'0 0.0
2017-Sep-11 02:57N 34°40' E 135°11'0 0.0
2017-Sep-11 02:27N 34°40' E 135°11'0 0.0
2017-Sep-11 01:57N 34°40' E 135°11'0 0.0
2017-Sep-11 01:21N 34°40' E 135°11'0 0.0
2017-Sep-11 00:57N 34°40' E 135°11'0 0.0
2017-Sep-11 00:21N 34°40' E 135°11'0 0.0
2017-Sep-10 23:57N 34°40' E 135°11'0 0.0
2017-Sep-10 23:21N 34°40' E 135°11'0 0.0
2017-Sep-10 22:57N 34°40' E 135°11'0 0.0
2017-Sep-10 22:27N 34°40' E 135°11'0 0.0
2017-Sep-10 21:57N 34°40' E 135°11'0 0.0
2017-Sep-10 21:27N 34°40' E 135°11'0 0.0
2017-Sep-10 20:57N 34°40' E 135°11'0 0.0
2017-Sep-10 20:27N 34°40' E 135°11'0 0.0
2017-Sep-10 19:51N 34°40' E 135°11'0 0.0
2017-Sep-10 19:27N 34°40' E 135°11'0 0.0
2017-Sep-10 18:57N 34°40' E 135°11'0 0.0
2017-Sep-10 18:27N 34°40' E 135°11'  

Dump ship's entire track history